Time;durP1;ratioP1;P1;durP2;ratioP2;P2;SDS_P1;SDS_P2;PMS_P1;PMS_P2;Temp;Humidity;BMP_temperature;BMP_pressure;BME280_temperature;BME280_humidity;BME280_pressure;Samples;Min_cycle;Max_cycle;Signal;HPM_P1;HPM_P2
2022/07/24 00:02:01;;;;;;;;;;;;;;;;;;5077551;28;20354;-26
2022/07/24 00:04:27;;;;;;;;;;;;;;;;;;5077025;28;19909;-26
2022/07/24 00:06:53;;;;;;;;;;;;;;;;;;5077100;28;19973;-26
2022/07/24 00:09:19;;;;;;;;;;;;;;;;;;5076870;28;19913;-26
2022/07/24 00:11:45;;;;;;;;;;;;;;;;;;5077095;28;19912;-27
2022/07/24 00:14:11;;;;;;;;;;;;;;;;;;5077330;28;19912;-26
2022/07/24 00:16:37;;;;;;;;;;;;;;;;;;5076712;28;19919;-26
2022/07/24 00:19:03;;;;;;;;;;;;;;;;;;5076606;28;20255;-26
2022/07/24 00:21:29;;;;;;;;;;;;;;;;;;5076617;28;19913;-26
2022/07/24 00:23:55;;;;;;;;;;;;;;;;;;5076874;28;20011;-26
2022/07/24 00:26:20;;;;;;;;;;;;;;;;;;5076497;28;19919;-26
2022/07/24 00:28:48;;;;;;;;;;;;;;;;;;5076371;28;19916;-26
2022/07/24 00:31:14;;;;;;;;;;;;;;;;;;5077252;28;19912;-26
2022/07/24 00:33:40;;;;;;;;;;;;;;;;;;5076426;28;19912;-26
2022/07/24 00:36:06;;;;;;;;;;;;;;;;;;5076238;28;19925;-26
2022/07/24 00:38:32;;;;;;;;;;;;;;;;;;5076818;28;19916;-26
2022/07/24 00:40:58;;;;;;;;;;;;;;;;;;5076255;28;19955;-25
2022/07/24 00:43:24;;;;;;;;;;;;;;;;;;5076203;28;20240;-25
2022/07/24 00:45:50;;;;;;;;;;;;;;;;;;5076144;28;20270;-25
2022/07/24 00:48:16;;;;;;;;;;;;;;;;;;5076546;28;19999;-25
2022/07/24 00:50:42;;;;;;;;;;;;;;;;;;5076004;28;19974;-26
2022/07/24 00:53:08;;;;;;;;;;;;;;;;;;5075862;28;19973;-26
2022/07/24 00:55:34;;;;;;;;;;;;;;;;;;5076234;28;20278;-26
2022/07/24 00:58:00;;;;;;;;;;;;;;;;;;5074897;28;19977;-26
2022/07/24 01:00:26;;;;;;;;;;;;;;;;;;5075864;28;19916;-26
2022/07/24 01:02:52;;;;;;;;;;;;;;;;;;5075838;28;19947;-26
2022/07/24 01:05:18;;;;;;;;;;;;;;;;;;5076061;28;19970;-26
2022/07/24 01:07:44;;;;;;;;;;;;;;;;;;5075426;28;20362;-26
2022/07/24 01:10:10;;;;;;;;;;;;;;;;;;5075168;28;20370;-26
2022/07/24 01:12:36;;;;;;;;;;;;;;;;;;5075925;28;20014;-26
2022/07/24 01:15:02;;;;;;;;;;;;;;;;;;5075598;28;19913;-25
2022/07/24 01:17:28;;;;;;;;;;;;;;;;;;5075528;28;19920;-26
2022/07/24 01:19:54;;;;;;;;;;;;;;;;;;5075453;28;19912;-26
2022/07/24 01:22:20;;;;;;;;;;;;;;;;;;5074559;28;20018;-26
2022/07/24 01:24:46;;;;;;;;;;;;;;;;;;5076015;28;19913;-26
2022/07/24 01:27:12;;;;;;;;;;;;;;;;;;5075349;28;20331;-26
2022/07/24 01:29:38;;;;;;;;;;;;;;;;;;5075603;28;19970;-26
2022/07/24 01:32:04;;;;;;;;;;;;;;;;;;5076185;28;19912;-26
2022/07/24 01:34:30;;;;;;;;;;;;;;;;;;5075610;28;19978;-26
2022/07/24 01:36:56;;;;;;;;;;;;;;;;;;5075257;28;19912;-26
2022/07/24 01:39:22;;;;;;;;;;;;;;;;;;5074248;28;19959;-26
2022/07/24 01:41:48;;;;;;;;;;;;;;;;;;5074271;28;19953;-26
2022/07/24 01:44:14;;;;;;;;;;;;;;;;;;5075732;28;19940;-26
2022/07/24 01:46:40;;;;;;;;;;;;;;;;;;5075215;28;20026;-26
2022/07/24 01:49:06;;;;;;;;;;;;;;;;;;5075168;28;19917;-26
2022/07/24 01:51:32;;;;;;;;;;;;;;;;;;5074830;28;19935;-26
2022/07/24 01:53:58;;;;;;;;;;;;;;;;;;5075702;28;19908;-26
2022/07/24 01:56:24;;;;;;;;;;;;;;;;;;5075057;28;20011;-26
2022/07/24 01:58:50;;;;;;;;;;;;;;;;;;5074997;28;20003;-26
2022/07/24 02:01:16;;;;;;;;;;;;;;;;;;5075597;28;20335;-26
2022/07/24 02:03:42;;;;;;;;;;;;;;;;;;5075067;28;19969;-26
2022/07/24 02:06:08;;;;;;;;;;;;;;;;;;5075267;28;19974;-26
2022/07/24 02:08:34;;;;;;;;;;;;;;;;;;5075123;28;19916;-26
2022/07/24 02:11:00;;;;;;;;;;;;;;;;;;5075474;28;20335;-26
2022/07/24 02:13:25;;;;;;;;;;;;;;;;;;5074947;28;19908;-26
2022/07/24 02:15:52;;;;;;;;;;;;;;;;;;5074907;28;19970;-26
2022/07/24 02:18:18;;;;;;;;;;;;;;;;;;5075147;28;19908;-26
2022/07/24 02:20:44;;;;;;;;;;;;;;;;;;5077422;28;20280;-27
2022/07/24 02:23:10;;;;;;;;;;;;;;;;;;5078857;28;19912;-27
2022/07/24 02:25:36;;;;;;;;;;;;;;;;;;5079059;28;20259;-26
2022/07/24 02:28:02;;;;;;;;;;;;;;;;;;5078703;28;19913;-27
2022/07/24 02:30:28;;;;;;;;;;;;;;;;;;5078787;28;19913;-27
2022/07/24 02:32:54;;;;;;;;;;;;;;;;;;5078987;28;19915;-27
2022/07/24 02:35:20;;;;;;;;;;;;;;;;;;5078966;28;19994;-27
2022/07/24 02:37:46;;;;;;;;;;;;;;;;;;5078902;28;20196;-27
2022/07/24 02:40:12;;;;;;;;;;;;;;;;;;5078500;28;19954;-27
2022/07/24 02:42:38;;;;;;;;;;;;;;;;;;5078823;28;19909;-27
2022/07/24 02:45:04;;;;;;;;;;;;;;;;;;5078527;28;20347;-27
2022/07/24 02:47:30;;;;;;;;;;;;;;;;;;5078396;28;19927;-27
2022/07/24 02:49:56;;;;;;;;;;;;;;;;;;5078389;28;19908;-27
2022/07/24 02:52:22;;;;;;;;;;;;;;;;;;5078629;28;19954;-27
2022/07/24 02:54:48;;;;;;;;;;;;;;;;;;5078873;28;19998;-27
2022/07/24 02:57:14;;;;;;;;;;;;;;;;;;5078250;28;19916;-27
2022/07/24 02:59:40;;;;;;;;;;;;;;;;;;5078177;28;19920;-27
2022/07/24 03:02:06;;;;;;;;;;;;;;;;;;5078423;28;19916;-27
2022/07/24 03:04:32;;;;;;;;;;;;;;;;;;5078149;28;19982;-27
2022/07/24 03:06:58;;;;;;;;;;;;;;;;;;5078021;28;19962;-27
2022/07/24 03:09:24;;;;;;;;;;;;;;;;;;5078175;28;19913;-27
2022/07/24 03:11:50;;;;;;;;;;;;;;;;;;5078233;28;19977;-27
2022/07/24 03:14:16;;;;;;;;;;;;;;;;;;5077980;28;19908;-27
2022/07/24 03:16:42;;;;;;;;;;;;;;;;;;5077845;28;19917;-27
2022/07/24 03:19:08;;;;;;;;;;;;;;;;;;5078071;28;19969;-27
2022/07/24 03:21:34;;;;;;;;;;;;;;;;;;5078347;28;19923;-27
2022/07/24 03:24:00;;;;;;;;;;;;;;;;;;5078040;28;19912;-27
2022/07/24 03:26:26;;;;;;;;;;;;;;;;;;5076740;28;19912;-27
2022/07/24 03:28:52;;;;;;;;;;;;;;;;;;5077506;28;19942;-27
2022/07/24 03:31:18;;;;;;;;;;;;;;;;;;5076850;28;19912;-27
2022/07/24 03:33:43;;;;;;;;;;;;;;;;;;5078136;28;19962;-27
2022/07/24 03:36:09;;;;;;;;;;;;;;;;;;5077625;28;19939;-27
2022/07/24 03:38:35;;;;;;;;;;;;;;;;;;5078029;28;20362;-27
2022/07/24 03:41:01;;;;;;;;;;;;;;;;;;5077497;28;20003;-27
2022/07/24 03:43:27;;;;;;;;;;;;;;;;;;5078271;28;19912;-27
2022/07/24 03:45:53;;;;;;;;;;;;;;;;;;5077375;28;20241;-27
2022/07/24 03:48:19;;;;;;;;;;;;;;;;;;5077430;28;19913;-27
2022/07/24 03:50:45;;;;;;;;;;;;;;;;;;5078033;28;19912;-27
2022/07/24 03:53:11;;;;;;;;;;;;;;;;;;5077103;28;20046;-27
2022/07/24 03:55:37;;;;;;;;;;;;;;;;;;5077214;28;19913;-27
2022/07/24 03:58:03;;;;;;;;;;;;;;;;;;5077063;28;19920;-27
2022/07/24 04:00:29;;;;;;;;;;;;;;;;;;5077335;28;19935;-27
2022/07/24 04:02:55;;;;;;;;;;;;;;;;;;5077303;28;19908;-27
2022/07/24 04:05:21;;;;;;;;;;;;;;;;;;5077265;28;19913;-27
2022/07/24 04:07:47;;;;;;;;;;;;;;;;;;5076898;28;19927;-27
2022/07/24 04:10:13;;;;;;;;;;;;;;;;;;5077123;28;19913;-27
2022/07/24 04:12:39;;;;;;;;;;;;;;;;;;5077078;28;19923;-27
2022/07/24 04:15:05;;;;;;;;;;;;;;;;;;5077053;28;20011;-27
2022/07/24 04:17:31;;;;;;;;;;;;;;;;;;5077327;28;19909;-27
2022/07/24 04:19:57;;;;;;;;;;;;;;;;;;5077240;28;20022;-27
2022/07/24 04:22:23;;;;;;;;;;;;;;;;;;5076672;28;19917;-27
2022/07/24 04:24:49;;;;;;;;;;;;;;;;;;5076650;28;19908;-27
2022/07/24 04:27:15;;;;;;;;;;;;;;;;;;5076520;28;20258;-27
2022/07/24 04:29:41;;;;;;;;;;;;;;;;;;5077014;28;19966;-27
2022/07/24 04:32:07;;;;;;;;;;;;;;;;;;5076492;28;19909;-27
2022/07/24 04:34:33;;;;;;;;;;;;;;;;;;5077056;28;19924;-27
2022/07/24 04:36:59;;;;;;;;;;;;;;;;;;5076375;28;19913;-27
2022/07/24 04:39:25;;;;;;;;;;;;;;;;;;5076545;28;20331;-27
2022/07/24 04:41:51;;;;;;;;;;;;;;;;;;5076528;28;19916;-26
2022/07/24 04:44:17;;;;;;;;;;;;;;;;;;5076495;28;19908;-27
2022/07/24 04:46:42;;;;;;;;;;;;;;;;;;5076215;28;19958;-27
2022/07/24 04:49:08;;;;;;;;;;;;;;;;;;5075966;28;20343;-27
2022/07/24 04:51:34;;;;;;;;;;;;;;;;;;5075852;28;19940;-27
2022/07/24 04:54:00;;;;;;;;;;;;;;;;;;5076038;28;19908;-27
2022/07/24 04:56:30;;;;;;;;;;;;;;;;;;5075049;28;19969;-26
2022/07/24 04:58:56;;;;;;;;;;;;;;;;;;5075881;28;19908;-27
2022/07/24 05:01:22;;;;;;;;;;;;;;;;;;5074935;28;19947;-28
2022/07/24 05:03:48;;;;;;;;;;;;;;;;;;5075884;28;19916;-28
2022/07/24 05:06:14;;;;;;;;;;;;;;;;;;5075763;28;19913;-26
2022/07/24 05:08:39;;;;;;;;;;;;;;;;;;5075935;28;19951;-25
2022/07/24 05:11:05;;;;;;;;;;;;;;;;;;5075703;28;19912;-26
2022/07/24 05:13:31;;;;;;;;;;;;;;;;;;5075939;28;20298;-26
2022/07/24 05:15:57;;;;;;;;;;;;;;;;;;5075865;28;20361;-26
2022/07/24 05:18:23;;;;;;;;;;;;;;;;;;5075539;28;19940;-26
2022/07/24 05:20:49;;;;;;;;;;;;;;;;;;5075791;28;19916;-27
2022/07/24 05:23:15;;;;;;;;;;;;;;;;;;5075501;28;20260;-26
2022/07/24 05:25:41;;;;;;;;;;;;;;;;;;5075500;28;19919;-26
2022/07/24 05:28:07;;;;;;;;;;;;;;;;;;5075303;28;19916;-26
2022/07/24 05:30:33;;;;;;;;;;;;;;;;;;5075637;28;19916;-26
2022/07/24 05:32:59;;;;;;;;;;;;;;;;;;5075966;28;19904;-26
2022/07/24 05:35:25;;;;;;;;;;;;;;;;;;5075393;28;20282;-26
2022/07/24 05:37:51;;;;;;;;;;;;;;;;;;5075514;28;19981;-26
2022/07/24 05:40:17;;;;;;;;;;;;;;;;;;5075181;28;19966;-26
2022/07/24 05:42:43;;;;;;;;;;;;;;;;;;5075527;28;19916;-27
2022/07/24 05:45:09;;;;;;;;;;;;;;;;;;5074264;28;19987;-26
2022/07/24 05:47:35;;;;;;;;;;;;;;;;;;5075068;28;19920;-27
2022/07/24 05:50:01;;;;;;;;;;;;;;;;;;5075888;28;20247;-27
2022/07/24 05:52:27;;;;;;;;;;;;;;;;;;5075205;28;19920;-26
2022/07/24 05:54:53;;;;;;;;;;;;;;;;;;5074716;28;19913;-27
2022/07/24 05:57:19;;;;;;;;;;;;;;;;;;5075361;28;19912;-26
2022/07/24 05:59:45;;;;;;;;;;;;;;;;;;5075023;28;19974;-27
2022/07/24 06:02:11;;;;;;;;;;;;;;;;;;5075283;28;19923;-27
2022/07/24 06:04:41;;;;;;;;;;;;;;;;;;5075064;28;20298;-27
2022/07/24 06:07:07;;;;;;;;;;;;;;;;;;5075208;28;19995;-27
2022/07/24 06:09:33;;;;;;;;;;;;;;;;;;5074946;28;20016;-27
2022/07/24 06:11:59;;;;;;;;;;;;;;;;;;5075213;28;19920;-26
2022/07/24 06:14:25;;;;;;;;;;;;;;;;;;5075001;28;19909;-26
2022/07/24 06:16:51;;;;;;;;;;;;;;;;;;5075231;28;20263;-26
2022/07/24 06:19:17;;;;;;;;;;;;;;;;;;5075087;28;20019;-27
2022/07/24 06:21:43;;;;;;;;;;;;;;;;;;5074964;28;19954;-26
2022/07/24 06:24:09;;;;;;;;;;;;;;;;;;5074891;28;19945;-27
2022/07/24 06:26:35;;;;;;;;;;;;;;;;;;5075071;28;19966;-27
2022/07/24 06:29:01;;;;;;;;;;;;;;;;;;5074632;28;19916;-27
2022/07/24 06:31:27;;;;;;;;;;;;;;;;;;5075347;28;20009;-27
2022/07/24 06:33:53;;;;;;;;;;;;;;;;;;5075074;28;19909;-26
2022/07/24 06:36:19;;;;;;;;;;;;;;;;;;5074720;28;19912;-27
2022/07/24 06:38:45;;;;;;;;;;;;;;;;;;5074962;28;19908;-26
2022/07/24 06:41:11;;;;;;;;;;;;;;;;;;5074690;28;20065;-26
2022/07/24 06:43:37;;;;;;;;;;;;;;;;;;5074692;28;20383;-26
2022/07/24 06:46:03;;;;;;;;;;;;;;;;;;5074850;28;19913;-27
2022/07/24 06:48:29;;;;;;;;;;;;;;;;;;5074503;28;20358;-26
2022/07/24 06:50:55;;;;;;;;;;;;;;;;;;5074505;28;19912;-26
2022/07/24 06:53:21;;;;;;;;;;;;;;;;;;5074387;28;19928;-26
2022/07/24 06:55:47;;;;;;;;;;;;;;;;;;5074569;28;20031;-26
2022/07/24 06:58:13;;;;;;;;;;;;;;;;;;5074443;28;19917;-26
2022/07/24 07:00:39;;;;;;;;;;;;;;;;;;5074745;28;19951;-26
2022/07/24 07:03:05;;;;;;;;;;;;;;;;;;5074461;28;19931;-26
2022/07/24 07:05:31;;;;;;;;;;;;;;;;;;5074489;28;19919;-26
2022/07/24 07:07:57;;;;;;;;;;;;;;;;;;5076829;28;19934;-26
2022/07/24 07:10:23;;;;;;;;;;;;;;;;;;5078086;28;19908;-26
2022/07/24 07:12:49;;;;;;;;;;;;;;;;;;5077887;28;19944;-26
2022/07/24 07:15:15;;;;;;;;;;;;;;;;;;5077963;28;19999;-26
2022/07/24 07:17:41;;;;;;;;;;;;;;;;;;5078184;28;19974;-26
2022/07/24 07:20:07;;;;;;;;;;;;;;;;;;5077771;28;19909;-26
2022/07/24 07:22:33;;;;;;;;;;;;;;;;;;5078347;28;19909;-26
2022/07/24 07:24:59;;;;;;;;;;;;;;;;;;5077775;28;19915;-26
2022/07/24 07:27:24;;;;;;;;;;;;;;;;;;5077916;28;19923;-26
2022/07/24 07:29:50;;;;;;;;;;;;;;;;;;5077941;28;19909;-26
2022/07/24 07:32:17;;;;;;;;;;;;;;;;;;5077651;28;19913;-26
2022/07/24 07:34:42;;;;;;;;;;;;;;;;;;5077610;28;20003;-26
2022/07/24 07:37:09;;;;;;;;;;;;;;;;;;5077790;28;19962;-26
2022/07/24 07:39:35;;;;;;;;;;;;;;;;;;5077662;28;19912;-26
2022/07/24 07:42:00;;;;;;;;;;;;;;;;;;5077479;28;20374;-26
2022/07/24 07:44:26;;;;;;;;;;;;;;;;;;5077430;28;19908;-26
2022/07/24 07:46:53;;;;;;;;;;;;;;;;;;5077349;28;19912;-26
2022/07/24 07:49:19;;;;;;;;;;;;;;;;;;5077486;28;19995;-27
2022/07/24 07:51:47;;;;;;;;;;;;;;;;;;5077268;28;20026;-27
2022/07/24 07:54:13;;;;;;;;;;;;;;;;;;5077478;28;19943;-27
2022/07/24 07:56:39;;;;;;;;;;;;;;;;;;5077190;28;19932;-26
2022/07/24 07:59:04;;;;;;;;;;;;;;;;;;5077418;28;20313;-26
2022/07/24 08:01:30;;;;;;;;;;;;;;;;;;5077124;28;19952;-26
2022/07/24 08:03:56;;;;;;;;;;;;;;;;;;5077074;28;19920;-26
2022/07/24 08:06:22;;;;;;;;;;;;;;;;;;5077041;28;19912;-26
2022/07/24 08:08:48;;;;;;;;;;;;;;;;;;5076907;28;19920;-26
2022/07/24 08:11:14;;;;;;;;;;;;;;;;;;5077172;28;19999;-26
2022/07/24 08:13:40;;;;;;;;;;;;;;;;;;5076920;28;19973;-26
2022/07/24 08:16:06;;;;;;;;;;;;;;;;;;5076799;28;19913;-27
2022/07/24 08:18:32;;;;;;;;;;;;;;;;;;5076396;28;20331;-26
2022/07/24 08:20:58;;;;;;;;;;;;;;;;;;5077301;28;20054;-26
2022/07/24 08:23:24;;;;;;;;;;;;;;;;;;5076724;28;19955;-26
2022/07/24 08:25:50;;;;;;;;;;;;;;;;;;5076563;28;19916;-26
2022/07/24 08:28:17;;;;;;;;;;;;;;;;;;5076692;28;19912;-26
2022/07/24 08:30:42;;;;;;;;;;;;;;;;;;5077630;28;19975;-26
2022/07/24 08:33:09;;;;;;;;;;;;;;;;;;5076495;28;19908;-26
2022/07/24 08:35:35;;;;;;;;;;;;;;;;;;5076446;28;20236;-26
2022/07/24 08:38:01;;;;;;;;;;;;;;;;;;5076603;28;19999;-26
2022/07/24 08:40:27;;;;;;;;;;;;;;;;;;5076626;28;19943;-26
2022/07/24 08:42:53;;;;;;;;;;;;;;;;;;5076235;28;20305;-26
2022/07/24 08:45:19;;;;;;;;;;;;;;;;;;5076251;28;19995;-26
2022/07/24 08:47:44;;;;;;;;;;;;;;;;;;5076134;28;19981;-27
2022/07/24 08:50:10;;;;;;;;;;;;;;;;;;5076100;28;19916;-26
2022/07/24 08:52:36;;;;;;;;;;;;;;;;;;5075853;28;19920;-26
2022/07/24 08:55:02;;;;;;;;;;;;;;;;;;5075968;28;20355;-26
2022/07/24 08:57:28;;;;;;;;;;;;;;;;;;5076020;28;19915;-26
2022/07/24 08:59:54;;;;;;;;;;;;;;;;;;5075943;28;19970;-27
2022/07/24 09:02:20;;;;;;;;;;;;;;;;;;5075906;28;19913;-26
2022/07/24 09:04:46;;;;;;;;;;;;;;;;;;5075878;28;20228;-26
2022/07/24 09:07:12;;;;;;;;;;;;;;;;;;5075703;28;19974;-26
2022/07/24 09:09:38;;;;;;;;;;;;;;;;;;5075669;28;19913;-27
2022/07/24 09:12:04;;;;;;;;;;;;;;;;;;5075734;28;19919;-26
2022/07/24 09:14:30;;;;;;;;;;;;;;;;;;5076236;28;19977;-26
2022/07/24 09:16:56;;;;;;;;;;;;;;;;;;5075637;28;20345;-26
2022/07/24 09:19:22;;;;;;;;;;;;;;;;;;5075532;28;19951;-26
2022/07/24 09:21:49;;;;;;;;;;;;;;;;;;5076139;28;19912;-26
2022/07/24 09:24:15;;;;;;;;;;;;;;;;;;5075470;28;19912;-26
2022/07/24 09:26:41;;;;;;;;;;;;;;;;;;5075452;28;19913;-26
2022/07/24 09:29:07;;;;;;;;;;;;;;;;;;5074849;28;19913;-26
2022/07/24 09:31:33;;;;;;;;;;;;;;;;;;5075890;28;20351;-26
2022/07/24 09:33:59;;;;;;;;;;;;;;;;;;5075656;28;19908;-26
2022/07/24 09:36:25;;;;;;;;;;;;;;;;;;5075593;28;19952;-26
2022/07/24 09:38:51;;;;;;;;;;;;;;;;;;5075262;28;19956;-26
2022/07/24 09:41:17;;;;;;;;;;;;;;;;;;5075565;28;19923;-26
2022/07/24 09:43:43;;;;;;;;;;;;;;;;;;5075289;28;19939;-27
2022/07/24 09:46:09;;;;;;;;;;;;;;;;;;5075477;28;19916;-26
2022/07/24 09:48:35;;;;;;;;;;;;;;;;;;5075914;28;19912;-25
2022/07/24 09:51:03;;;;;;;;;;;;;;;;;;5074713;28;20217;-26
2022/07/24 09:53:29;;;;;;;;;;;;;;;;;;5074922;28;19963;-26
2022/07/24 09:55:55;;;;;;;;;;;;;;;;;;5075669;28;19931;-26
2022/07/24 09:58:21;;;;;;;;;;;;;;;;;;5075031;28;19908;-26
2022/07/24 10:00:47;;;;;;;;;;;;;;;;;;5075371;28;19916;-26
2022/07/24 10:03:13;;;;;;;;;;;;;;;;;;5074093;28;19912;-28
2022/07/24 10:05:39;;;;;;;;;;;;;;;;;;5075881;28;19913;-26
2022/07/24 10:08:06;;;;;;;;;;;;;;;;;;5074868;28;19940;-26
2022/07/24 10:10:32;;;;;;;;;;;;;;;;;;5075244;28;19920;-26
2022/07/24 10:12:58;;;;;;;;;;;;;;;;;;5074965;28;20255;-26
2022/07/24 10:15:24;;;;;;;;;;;;;;;;;;5075155;28;19912;-26
2022/07/24 10:17:50;;;;;;;;;;;;;;;;;;5074895;28;20022;-26
2022/07/24 10:20:15;;;;;;;;;;;;;;;;;;5075136;28;20347;-27
2022/07/24 10:22:41;;;;;;;;;;;;;;;;;;5075145;28;19935;-27
2022/07/24 10:25:08;;;;;;;;;;;;;;;;;;5074830;28;19912;-27
2022/07/24 10:27:34;;;;;;;;;;;;;;;;;;5075080;28;19912;-26
2022/07/24 10:30:00;;;;;;;;;;;;;;;;;;5074724;28;19917;-26
2022/07/24 10:32:26;;;;;;;;;;;;;;;;;;5074722;28;20255;-26
2022/07/24 10:34:52;;;;;;;;;;;;;;;;;;5075304;28;19912;-26
2022/07/24 10:37:20;;;;;;;;;;;;;;;;;;5075253;28;19916;-25
2022/07/24 10:39:46;;;;;;;;;;;;;;;;;;5074908;28;20290;-26
2022/07/24 10:42:12;;;;;;;;;;;;;;;;;;5077911;28;20003;-26
2022/07/24 10:44:38;;;;;;;;;;;;;;;;;;5078805;28;19912;-26
2022/07/24 10:47:05;;;;;;;;;;;;;;;;;;5078461;28;19909;-26
2022/07/24 10:49:31;;;;;;;;;;;;;;;;;;5078446;28;19916;-26
2022/07/24 10:51:57;;;;;;;;;;;;;;;;;;5078226;28;19970;-26
2022/07/24 10:54:22;;;;;;;;;;;;;;;;;;5077416;28;19917;-26
2022/07/24 10:56:50;;;;;;;;;;;;;;;;;;5078853;28;19944;-26
2022/07/24 10:59:16;;;;;;;;;;;;;;;;;;5078459;28;20291;-26
2022/07/24 11:01:44;;;;;;;;;;;;;;;;;;5078229;28;19963;-26
2022/07/24 11:04:10;;;;;;;;;;;;;;;;;;5078423;28;19916;-26
2022/07/24 11:06:36;;;;;;;;;;;;;;;;;;5078754;28;20382;-26
2022/07/24 11:09:03;;;;;;;;;;;;;;;;;;5077966;28;20363;-26
2022/07/24 11:11:28;;;;;;;;;;;;;;;;;;5077987;28;20011;-26
2022/07/24 11:13:57;;;;;;;;;;;;;;;;;;5077990;28;19982;-26
2022/07/24 11:16:23;;;;;;;;;;;;;;;;;;5077949;28;19917;-26
2022/07/24 11:18:49;;;;;;;;;;;;;;;;;;5078445;28;19916;-26
2022/07/24 11:21:14;;;;;;;;;;;;;;;;;;5078126;28;19912;-26
2022/07/24 11:23:40;;;;;;;;;;;;;;;;;;5077790;28;19909;-26
2022/07/24 11:26:06;;;;;;;;;;;;;;;;;;5077751;28;19920;-26
2022/07/24 11:28:32;;;;;;;;;;;;;;;;;;5076628;28;19912;-26
2022/07/24 11:30:59;;;;;;;;;;;;;;;;;;5078234;28;19917;-26
2022/07/24 11:33:25;;;;;;;;;;;;;;;;;;5077983;28;19919;-26
2022/07/24 11:35:51;;;;;;;;;;;;;;;;;;5077877;28;20306;-26
2022/07/24 11:38:17;;;;;;;;;;;;;;;;;;5077550;28;19909;-26
2022/07/24 11:40:43;;;;;;;;;;;;;;;;;;5077527;28;19912;-26
2022/07/24 11:43:10;;;;;;;;;;;;;;;;;;5078039;28;19915;-26
2022/07/24 11:45:36;;;;;;;;;;;;;;;;;;5077708;28;20236;-27
2022/07/24 11:48:02;;;;;;;;;;;;;;;;;;5077211;28;19920;-27
2022/07/24 11:50:28;;;;;;;;;;;;;;;;;;5077939;28;19969;-27
2022/07/24 11:52:54;;;;;;;;;;;;;;;;;;5076392;28;19999;-27
2022/07/24 11:55:20;;;;;;;;;;;;;;;;;;5077257;28;19919;-27
2022/07/24 11:57:46;;;;;;;;;;;;;;;;;;5077138;28;19913;-27
2022/07/24 12:00:12;;;;;;;;;;;;;;;;;;5077163;28;19917;-27
2022/07/24 12:02:38;;;;;;;;;;;;;;;;;;5077413;28;20238;-26
2022/07/24 12:05:04;;;;;;;;;;;;;;;;;;5077074;28;19918;-27
2022/07/24 12:07:31;;;;;;;;;;;;;;;;;;5076979;28;21879;-27
2022/07/24 12:09:57;;;;;;;;;;;;;;;;;;5076863;28;19924;-27
2022/07/24 12:12:23;;;;;;;;;;;;;;;;;;5077192;28;19908;-27
2022/07/24 12:14:49;;;;;;;;;;;;;;;;;;5077412;28;19913;-27
2022/07/24 12:17:15;;;;;;;;;;;;;;;;;;5077052;28;19958;-26
2022/07/24 12:19:41;;;;;;;;;;;;;;;;;;5077016;28;19962;-27
2022/07/24 12:22:07;;;;;;;;;;;;;;;;;;5076744;28;20007;-27
2022/07/24 12:24:33;;;;;;;;;;;;;;;;;;5076710;28;19958;-27
2022/07/24 12:26:59;;;;;;;;;;;;;;;;;;5076880;28;20007;-27
2022/07/24 12:29:25;;;;;;;;;;;;;;;;;;5076726;28;19923;-27
2022/07/24 12:31:52;;;;;;;;;;;;;;;;;;5076534;28;19908;-27
2022/07/24 12:34:18;;;;;;;;;;;;;;;;;;5076787;28;20369;-27
2022/07/24 12:36:44;;;;;;;;;;;;;;;;;;5076689;28;19908;-27
2022/07/24 12:39:09;;;;;;;;;;;;;;;;;;5076282;28;19948;-27
2022/07/24 12:41:35;;;;;;;;;;;;;;;;;;5076377;28;19908;-26
2022/07/24 12:44:05;;;;;;;;;;;;;;;;;;5076297;28;19939;-27
2022/07/24 12:46:31;;;;;;;;;;;;;;;;;;5076435;28;19940;-27
2022/07/24 12:48:57;;;;;;;;;;;;;;;;;;5076338;28;19912;-27
2022/07/24 12:51:23;;;;;;;;;;;;;;;;;;5076163;28;19913;-27
2022/07/24 12:53:49;;;;;;;;;;;;;;;;;;5076121;28;20271;-27
2022/07/24 12:56:15;;;;;;;;;;;;;;;;;;5076638;28;19912;-27
2022/07/24 12:58:41;;;;;;;;;;;;;;;;;;5075988;28;19913;-27
2022/07/24 13:01:07;;;;;;;;;;;;;;;;;;5076239;28;19913;-27
2022/07/24 13:03:35;;;;;;;;;;;;;;;;;;5075644;28;19923;-27
2022/07/24 13:06:01;;;;;;;;;;;;;;;;;;5075157;28;19913;-27
2022/07/24 13:08:27;;;;;;;;;;;;;;;;;;5075585;28;19927;-27
2022/07/24 13:10:52;;;;;;;;;;;;;;;;;;5075765;28;19912;-27
2022/07/24 13:13:18;;;;;;;;;;;;;;;;;;5076280;28;20346;-27
2022/07/24 13:15:44;;;;;;;;;;;;;;;;;;5075694;28;20229;-26
2022/07/24 13:18:10;;;;;;;;;;;;;;;;;;5076078;28;20007;-27
2022/07/24 13:20:36;;;;;;;;;;;;;;;;;;5075599;28;19959;-27
2022/07/24 13:23:02;;;;;;;;;;;;;;;;;;5075555;28;19915;-27
2022/07/24 13:25:28;;;;;;;;;;;;;;;;;;5075779;28;20358;-26
2022/07/24 13:27:54;;;;;;;;;;;;;;;;;;5074336;28;19912;-26
2022/07/24 13:30:20;;;;;;;;;;;;;;;;;;5076019;28;19973;-26
2022/07/24 13:32:46;;;;;;;;;;;;;;;;;;5075657;28;19905;-26
2022/07/24 13:35:12;;;;;;;;;;;;;;;;;;5075719;28;19918;-26
2022/07/24 13:37:38;;;;;;;;;;;;;;;;;;5075883;28;19908;-26
2022/07/24 13:40:06;;;;;;;;;;;;;;;;;;5074332;28;19920;-26
2022/07/24 13:42:32;;;;;;;;;;;;;;;;;;5075596;28;19908;-26
2022/07/24 13:44:58;;;;;;;;;;;;;;;;;;5075594;28;19924;-26
2022/07/24 13:47:24;;;;;;;;;;;;;;;;;;5075191;28;20259;-26
2022/07/24 13:49:50;;;;;;;;;;;;;;;;;;5075187;28;19912;-26
2022/07/24 13:52:16;;;;;;;;;;;;;;;;;;5075288;28;19924;-26
2022/07/24 13:54:42;;;;;;;;;;;;;;;;;;5075181;28;19908;-26
2022/07/24 13:57:08;;;;;;;;;;;;;;;;;;5075703;28;19912;-26
2022/07/24 13:59:34;;;;;;;;;;;;;;;;;;5075242;28;19908;-26
2022/07/24 14:02:00;;;;;;;;;;;;;;;;;;5075031;28;19959;-26
2022/07/24 14:04:26;;;;;;;;;;;;;;;;;;5075354;28;19913;-26
2022/07/24 14:06:52;;;;;;;;;;;;;;;;;;5075327;28;19923;-27
2022/07/24 14:09:18;;;;;;;;;;;;;;;;;;5074910;28;19939;-27
2022/07/24 14:11:44;;;;;;;;;;;;;;;;;;5075251;28;19944;-26
2022/07/24 14:14:10;;;;;;;;;;;;;;;;;;5075288;28;20280;-27
2022/07/24 14:16:37;;;;;;;;;;;;;;;;;;5077895;28;19965;-26
2022/07/24 14:19:03;;;;;;;;;;;;;;;;;;5079310;28;19956;-26
2022/07/24 14:21:30;;;;;;;;;;;;;;;;;;5079289;28;20232;-26
2022/07/24 14:23:56;;;;;;;;;;;;;;;;;;5079290;28;19951;-27
2022/07/24 14:26:22;;;;;;;;;;;;;;;;;;5078917;28;20243;-27
2022/07/24 14:28:48;;;;;;;;;;;;;;;;;;5078775;28;19991;-26
2022/07/24 14:31:14;;;;;;;;;;;;;;;;;;5078859;28;19912;-26
2022/07/24 14:33:40;;;;;;;;;;;;;;;;;;5078835;28;20363;-27
2022/07/24 14:36:06;;;;;;;;;;;;;;;;;;5079363;28;20007;-27
2022/07/24 14:38:32;;;;;;;;;;;;;;;;;;5078880;28;19948;-27
2022/07/24 14:40:58;;;;;;;;;;;;;;;;;;5078717;28;20399;-26
2022/07/24 14:43:24;;;;;;;;;;;;;;;;;;5078896;28;20201;-26
2022/07/24 14:45:49;;;;;;;;;;;;;;;;;;5079125;28;19912;-26
2022/07/24 14:48:16;;;;;;;;;;;;;;;;;;5078963;28;19913;-27
2022/07/24 14:50:42;;;;;;;;;;;;;;;;;;5078418;28;19912;-26
2022/07/24 14:53:08;;;;;;;;;;;;;;;;;;5078227;28;20070;-27
2022/07/24 14:55:34;;;;;;;;;;;;;;;;;;5078311;28;19916;-26
2022/07/24 14:58:00;;;;;;;;;;;;;;;;;;5078329;28;20003;-26
2022/07/24 15:00:26;;;;;;;;;;;;;;;;;;5078555;28;20020;-26
2022/07/24 15:02:52;;;;;;;;;;;;;;;;;;5078792;28;19908;-27
2022/07/24 15:05:18;;;;;;;;;;;;;;;;;;5078208;28;19919;-26
2022/07/24 15:07:44;;;;;;;;;;;;;;;;;;5078089;28;20322;-26
2022/07/24 15:10:10;;;;;;;;;;;;;;;;;;5077996;28;19916;-26
2022/07/24 15:12:36;;;;;;;;;;;;;;;;;;5077984;28;19909;-26
2022/07/24 15:15:02;;;;;;;;;;;;;;;;;;5077943;28;19970;-27
2022/07/24 15:17:28;;;;;;;;;;;;;;;;;;5077955;28;19908;-26
2022/07/24 15:19:53;;;;;;;;;;;;;;;;;;5077906;28;19912;-26
2022/07/24 15:22:20;;;;;;;;;;;;;;;;;;5078444;28;19908;-26
2022/07/24 15:24:45;;;;;;;;;;;;;;;;;;5078125;28;19912;-27
2022/07/24 15:27:11;;;;;;;;;;;;;;;;;;5076737;28;20374;-27
2022/07/24 15:29:37;;;;;;;;;;;;;;;;;;5077616;28;19912;-26
2022/07/24 15:32:03;;;;;;;;;;;;;;;;;;5077969;28;19913;-26
2022/07/24 15:34:30;;;;;;;;;;;;;;;;;;5077661;28;19938;-27
2022/07/24 15:36:56;;;;;;;;;;;;;;;;;;5077872;28;19924;-27
2022/07/24 15:39:22;;;;;;;;;;;;;;;;;;5077561;28;20247;-26
2022/07/24 15:41:48;;;;;;;;;;;;;;;;;;5077809;28;19916;-27
2022/07/24 15:44:14;;;;;;;;;;;;;;;;;;5077549;28;19948;-27
2022/07/24 15:46:40;;;;;;;;;;;;;;;;;;5077994;28;20339;-27
2022/07/24 15:49:06;;;;;;;;;;;;;;;;;;5077281;28;19923;-27
2022/07/24 15:51:32;;;;;;;;;;;;;;;;;;5077363;28;20290;-27
2022/07/24 15:53:58;;;;;;;;;;;;;;;;;;5077641;28;19908;-26
2022/07/24 15:56:24;;;;;;;;;;;;;;;;;;5078091;28;19913;-26
2022/07/24 15:58:50;;;;;;;;;;;;;;;;;;5077228;28;20357;-26
2022/07/24 16:01:16;;;;;;;;;;;;;;;;;;5076254;28;20002;-26
2022/07/24 16:03:42;;;;;;;;;;;;;;;;;;5077165;28;20336;-26
2022/07/24 16:06:08;;;;;;;;;;;;;;;;;;5077116;28;19959;-26
2022/07/24 16:08:34;;;;;;;;;;;;;;;;;;5076892;28;20267;-26
2022/07/24 16:11:00;;;;;;;;;;;;;;;;;;5077225;28;20313;-27
2022/07/24 16:13:26;;;;;;;;;;;;;;;;;;5077787;28;19991;-27
2022/07/24 16:15:51;;;;;;;;;;;;;;;;;;5076851;28;19966;-27
2022/07/24 16:18:17;;;;;;;;;;;;;;;;;;5077058;28;20375;-26
2022/07/24 16:20:43;;;;;;;;;;;;;;;;;;5076820;28;20224;-27
2022/07/24 16:23:09;;;;;;;;;;;;;;;;;;5076802;28;19908;-27
2022/07/24 16:25:35;;;;;;;;;;;;;;;;;;5076924;28;19946;-27
2022/07/24 16:28:01;;;;;;;;;;;;;;;;;;5076499;28;19913;-27
2022/07/24 16:30:27;;;;;;;;;;;;;;;;;;5076642;28;20228;-27
2022/07/24 16:32:53;;;;;;;;;;;;;;;;;;5076785;28;19966;-27
2022/07/24 16:35:19;;;;;;;;;;;;;;;;;;5076779;28;19913;-27
2022/07/24 16:37:45;;;;;;;;;;;;;;;;;;5076446;28;20345;-26